createdAt,value
2018-06-29T00:00:35.110Z,1019.63
2018-06-29T00:01:34.812Z,1019.63
2018-06-29T00:02:35.045Z,1019.61
2018-06-29T00:03:34.972Z,1019.6
2018-06-29T00:04:34.949Z,1019.6
2018-06-29T00:05:35.170Z,1019.6
2018-06-29T00:06:34.943Z,1019.59
2018-06-29T00:07:34.992Z,1019.61
2018-06-29T00:08:34.862Z,1019.61
2018-06-29T00:09:35.117Z,1019.59
2018-06-29T00:10:34.852Z,1019.58
2018-06-29T00:11:35.010Z,1019.56
2018-06-29T00:12:34.999Z,1019.61
2018-06-29T00:13:34.981Z,1019.56
2018-06-29T00:14:35.145Z,1019.62
2018-06-29T00:15:34.852Z,1019.58
2018-06-29T00:16:35.100Z,1019.6
2018-06-29T00:17:35.026Z,1019.57
2018-06-29T00:18:34.901Z,1019.56
2018-06-29T00:19:34.872Z,1019.59
2018-06-29T00:20:35.168Z,1019.6
2018-06-29T00:21:34.891Z,1019.6
2018-06-29T00:22:34.887Z,1019.6
2018-06-29T00:23:34.996Z,1019.62
2018-06-29T00:24:35.457Z,1019.59
2018-06-29T00:25:35.067Z,1019.55
2018-06-29T00:26:34.885Z,1019.57
2018-06-29T00:27:35.077Z,1019.58
2018-06-29T00:28:34.882Z,1019.54
2018-06-29T00:29:35.168Z,1019.59
2018-06-29T00:30:35.345Z,1019.57
2018-06-29T00:31:34.976Z,1019.59
2018-06-29T00:32:35.164Z,1019.56
2018-06-29T00:33:34.985Z,1019.57
2018-06-29T00:34:35.179Z,1019.59
2018-06-29T00:35:35.017Z,1019.55
2018-06-29T00:36:35.030Z,1019.58
2018-06-29T00:37:35.000Z,1019.56
2018-06-29T00:38:35.061Z,1019.58
2018-06-29T00:39:35.044Z,1019.61
2018-06-29T00:40:34.983Z,1019.63
2018-06-29T00:41:35.055Z,1019.56
2018-06-29T00:42:35.037Z,1019.56
2018-06-29T00:43:35.176Z,1019.58
2018-06-29T00:44:35.049Z,1019.55
2018-06-29T00:45:34.990Z,1019.49
2018-06-29T00:46:34.887Z,1019.53
2018-06-29T00:47:34.887Z,1019.52
2018-06-29T00:48:34.897Z,1019.54
2018-06-29T00:49:35.094Z,1019.54
2018-06-29T00:50:35.085Z,1019.51
2018-06-29T00:51:35.095Z,1019.48
2018-06-29T00:52:35.101Z,1019.48
2018-06-29T00:53:35.122Z,1019.47
2018-06-29T00:54:35.240Z,1019.44
2018-06-29T00:55:34.855Z,1019.5
2018-06-29T00:56:34.930Z,1019.46
2018-06-29T00:57:34.932Z,1019.43
2018-06-29T00:58:34.896Z,1019.44
2018-06-29T00:59:35.173Z,1019.44
2018-06-29T01:00:35.106Z,1019.45
2018-06-29T01:01:35.089Z,1019.48
2018-06-29T01:02:35.093Z,1019.48
2018-06-29T01:03:34.901Z,1019.5
2018-06-29T01:04:35.156Z,1019.53
2018-06-29T01:05:35.112Z,1019.57
2018-06-29T01:06:34.798Z,1019.54
2018-06-29T01:07:34.933Z,1019.49
2018-06-29T01:08:35.133Z,1019.51
2018-06-29T01:09:34.952Z,1019.55
2018-06-29T01:10:35.047Z,1019.51
2018-06-29T01:11:34.998Z,1019.55
2018-06-29T01:12:35.038Z,1019.51
2018-06-29T01:13:35.031Z,1019.51
2018-06-29T01:14:34.826Z,1019.51
2018-06-29T01:15:34.809Z,1019.51
2018-06-29T01:16:34.932Z,1019.52
2018-06-29T01:17:35.060Z,1019.58
2018-06-29T01:18:34.787Z,1019.58
2018-06-29T01:19:34.778Z,1019.57
2018-06-29T01:20:35.215Z,1019.59
2018-06-29T01:21:35.067Z,1019.58
2018-06-29T01:22:34.853Z,1019.55
2018-06-29T01:23:34.872Z,1019.53
2018-06-29T01:24:34.758Z,1019.52
2018-06-29T01:25:35.074Z,1019.55
2018-06-29T01:26:34.897Z,1019.51
2018-06-29T01:27:34.819Z,1019.52
2018-06-29T01:28:35.029Z,1019.5
2018-06-29T01:29:34.940Z,1019.52
2018-06-29T01:30:34.809Z,1019.52
2018-06-29T01:31:34.854Z,1019.51
2018-06-29T01:32:34.868Z,1019.51
2018-06-29T01:33:34.727Z,1019.49
2018-06-29T01:34:35.128Z,1019.54
2018-06-29T01:35:34.826Z,1019.5
2018-06-29T01:36:34.920Z,1019.45
2018-06-29T01:37:34.944Z,1019.45
2018-06-29T01:38:34.896Z,1019.4
2018-06-29T01:39:34.853Z,1019.34
2018-06-29T01:40:34.969Z,1019.37
2018-06-29T01:41:34.959Z,1019.32
2018-06-29T01:42:44.942Z,1019.29
2018-06-29T01:43:34.901Z,1019.31
2018-06-29T01:44:34.803Z,1019.27
2018-06-29T01:45:35.064Z,1019.28
2018-06-29T01:46:35.021Z,1019.35
2018-06-29T01:47:34.918Z,1019.32
2018-06-29T01:48:34.980Z,1019.34
2018-06-29T01:49:34.970Z,1019.34
2018-06-29T01:50:34.921Z,1019.35
2018-06-29T01:51:34.831Z,1019.34
2018-06-29T01:52:35.160Z,1019.35
2018-06-29T01:53:34.831Z,1019.33
2018-06-29T01:54:34.806Z,1019.31
2018-06-29T01:55:34.915Z,1019.32
2018-06-29T01:56:34.985Z,1019.33
2018-06-29T01:57:35.122Z,1019.29
2018-06-29T01:58:35.051Z,1019.29
2018-06-29T01:59:34.965Z,1019.32
2018-06-29T02:00:34.866Z,1019.27
2018-06-29T02:01:35.017Z,1019.24
2018-06-29T02:02:34.962Z,1019.2
2018-06-29T02:03:34.940Z,1019.18
2018-06-29T02:04:34.982Z,1019.17
2018-06-29T02:05:34.944Z,1019.18
2018-06-29T02:06:34.892Z,1019.14
2018-06-29T02:07:34.921Z,1019.13
2018-06-29T02:08:34.933Z,1019.1
2018-06-29T02:09:34.780Z,1019.13
2018-06-29T02:10:35.037Z,1019.16
2018-06-29T02:11:35.030Z,1019.14
2018-06-29T02:12:34.882Z,1019.18
2018-06-29T02:13:35.041Z,1019.23
2018-06-29T02:14:34.924Z,1019.18
2018-06-29T02:15:34.825Z,1019.17
2018-06-29T02:16:35.022Z,1019.17
2018-06-29T02:17:35.090Z,1019.14
2018-06-29T02:18:34.854Z,1019.16
2018-06-29T02:19:34.827Z,1019.21
2018-06-29T02:20:35.108Z,1019.21
2018-06-29T02:21:34.757Z,1019.17
2018-06-29T02:22:35.107Z,1019.19
2018-06-29T02:23:35.037Z,1019.22
2018-06-29T02:24:34.943Z,1019.16
2018-06-29T02:25:34.784Z,1019.17
2018-06-29T02:26:34.938Z,1019.12
2018-06-29T02:27:35.044Z,1019.13
2018-06-29T02:28:34.891Z,1019.13
2018-06-29T02:29:34.935Z,1019.05
2018-06-29T02:30:35.149Z,1019.05
2018-06-29T02:31:34.906Z,1019.06
2018-06-29T02:32:34.782Z,1019.07
2018-06-29T02:33:34.889Z,1019.07
2018-06-29T02:34:34.820Z,1019.03
2018-06-29T02:35:34.845Z,1019.07
2018-06-29T02:36:34.973Z,1019.07
2018-06-29T02:37:34.852Z,1019.1
2018-06-29T02:38:35.024Z,1019.01
2018-06-29T02:39:34.853Z,1018.96
2018-06-29T02:40:34.922Z,1018.96
2018-06-29T02:41:34.887Z,1018.94
2018-06-29T02:42:34.862Z,1018.97
2018-06-29T02:43:34.896Z,1018.92
2018-06-29T02:44:34.854Z,1018.91
2018-06-29T02:45:34.768Z,1018.88
2018-06-29T02:46:34.944Z,1018.9
2018-06-29T02:47:35.009Z,1018.81
2018-06-29T02:48:34.947Z,1018.83
2018-06-29T02:49:34.901Z,1018.86
2018-06-29T02:50:34.804Z,1018.86
2018-06-29T02:51:34.902Z,1018.87
2018-06-29T02:52:34.939Z,1018.82
2018-06-29T02:53:35.051Z,1018.84
2018-06-29T02:54:34.838Z,1018.86
2018-06-29T02:55:34.841Z,1018.85
2018-06-29T02:56:35.006Z,1018.84
2018-06-29T02:57:34.900Z,1018.88
2018-06-29T02:58:34.880Z,1018.84
2018-06-29T02:59:34.852Z,1018.87
2018-06-29T03:00:35.031Z,1018.9
2018-06-29T03:01:34.900Z,1018.91
2018-06-29T03:02:35.017Z,1018.89
2018-06-29T03:03:35.057Z,1018.9
2018-06-29T03:04:34.873Z,1018.89
2018-06-29T03:05:34.823Z,1018.9
2018-06-29T03:06:34.986Z,1018.88
2018-06-29T03:07:34.907Z,1018.87
2018-06-29T03:08:34.874Z,1018.91
2018-06-29T03:09:35.030Z,1018.87
2018-06-29T03:10:34.918Z,1018.88
2018-06-29T03:11:34.996Z,1018.95
2018-06-29T03:12:35.029Z,1018.92
2018-06-29T03:13:34.993Z,1018.89
2018-06-29T03:14:34.951Z,1018.9
2018-06-29T03:15:34.926Z,1018.91
2018-06-29T03:16:34.936Z,1018.92
2018-06-29T03:17:34.956Z,1018.92
2018-06-29T03:18:35.092Z,1018.92
2018-06-29T03:19:35.137Z,1018.89
2018-06-29T03:20:34.968Z,1018.9
2018-06-29T03:21:35.006Z,1018.91
2018-06-29T03:22:35.003Z,1018.85
2018-06-29T03:23:35.010Z,1018.78
2018-06-29T03:24:35.007Z,1018.84
2018-06-29T03:25:34.860Z,1018.83
2018-06-29T03:26:34.806Z,1018.8
2018-06-29T03:27:35.022Z,1018.82
2018-06-29T03:28:34.952Z,1018.85
2018-06-29T03:29:34.958Z,1018.81
2018-06-29T03:30:34.840Z,1018.83
2018-06-29T03:31:35.059Z,1018.8
2018-06-29T03:32:35.127Z,1018.83
2018-06-29T03:33:34.846Z,1018.85
2018-06-29T03:34:34.824Z,1018.84
2018-06-29T03:35:35.029Z,1018.84
2018-06-29T03:36:35.070Z,1018.84
2018-06-29T03:37:34.918Z,1018.88
2018-06-29T03:38:34.762Z,1018.84
2018-06-29T03:39:34.759Z,1018.86
2018-06-29T03:40:35.469Z,1018.87
2018-06-29T03:41:35.041Z,1018.84
2018-06-29T03:42:35.071Z,1018.83
2018-06-29T03:43:34.897Z,1018.83
2018-06-29T03:44:34.942Z,1018.82
2018-06-29T03:45:34.848Z,1018.83
2018-06-29T03:46:34.791Z,1018.78
2018-06-29T03:47:35.081Z,1018.81
2018-06-29T03:48:35.113Z,1018.8
2018-06-29T03:49:35.170Z,1018.86
2018-06-29T03:50:34.965Z,1018.9
2018-06-29T03:51:34.912Z,1018.87
2018-06-29T03:52:34.972Z,1018.9
2018-06-29T03:53:34.808Z,1018.91
2018-06-29T03:54:34.833Z,1018.91
2018-06-29T03:55:34.822Z,1018.82
2018-06-29T03:56:34.973Z,1018.84
2018-06-29T03:57:34.768Z,1018.9
2018-06-29T03:58:34.877Z,1018.9
2018-06-29T03:59:34.970Z,1018.89
2018-06-29T04:00:34.800Z,1018.91
2018-06-29T04:01:34.826Z,1018.84
2018-06-29T04:02:34.894Z,1018.86
2018-06-29T04:03:35.234Z,1018.93
2018-06-29T04:04:34.754Z,1018.9
2018-06-29T04:05:34.942Z,1018.89
2018-06-29T04:06:34.894Z,1018.93
2018-06-29T04:07:34.897Z,1018.94
2018-06-29T04:08:35.053Z,1018.93
2018-06-29T04:09:34.744Z,1018.84
2018-06-29T04:10:34.892Z,1018.84
2018-06-29T04:11:35.087Z,1018.85
2018-06-29T04:12:35.100Z,1018.8
2018-06-29T04:13:34.905Z,1018.86
2018-06-29T04:14:34.772Z,1018.8
2018-06-29T04:15:34.947Z,1018.8
2018-06-29T04:16:34.938Z,1018.83
2018-06-29T04:17:34.920Z,1018.92
2018-06-29T04:18:35.287Z,1018.88
2018-06-29T04:19:34.867Z,1018.87
2018-06-29T04:20:34.820Z,1018.92
2018-06-29T04:21:34.987Z,1018.92
2018-06-29T04:22:34.749Z,1018.9
2018-06-29T04:23:34.836Z,1018.9
2018-06-29T04:24:34.966Z,1018.95
2018-06-29T04:25:34.843Z,1018.9
2018-06-29T04:26:35.172Z,1018.84
2018-06-29T04:27:34.988Z,1018.87
2018-06-29T04:28:34.952Z,1018.89
2018-06-29T04:29:34.867Z,1018.9
2018-06-29T04:30:34.727Z,1018.86
2018-06-29T04:31:34.820Z,1018.86
2018-06-29T04:32:34.863Z,1018.87
2018-06-29T04:33:34.673Z,1018.82
2018-06-29T04:34:35.228Z,1018.86
2018-06-29T04:35:34.893Z,1018.87
2018-06-29T04:36:34.921Z,1018.86
2018-06-29T04:37:34.856Z,1018.88
2018-06-29T04:38:35.200Z,1018.87
2018-06-29T04:39:34.904Z,1018.88
2018-06-29T04:40:34.909Z,1018.88
2018-06-29T04:41:34.785Z,1018.91
2018-06-29T04:42:34.813Z,1018.92
2018-06-29T04:43:34.908Z,1018.91
2018-06-29T04:44:34.784Z,1018.88
2018-06-29T04:45:34.982Z,1018.85
2018-06-29T04:46:34.857Z,1018.79
2018-06-29T04:47:34.996Z,1018.72
2018-06-29T04:48:34.800Z,1018.73
2018-06-29T04:49:34.912Z,1018.82
2018-06-29T04:50:34.859Z,1018.84
2018-06-29T04:51:34.776Z,1018.83
2018-06-29T04:52:34.885Z,1018.77
2018-06-29T04:53:34.744Z,1018.78
2018-06-29T04:54:34.845Z,1018.76
2018-06-29T04:55:34.926Z,1018.77
2018-06-29T04:56:34.861Z,1018.75
2018-06-29T04:57:34.884Z,1018.83
2018-06-29T04:58:34.934Z,1018.86
2018-06-29T04:59:34.905Z,1018.91
2018-06-29T05:00:34.802Z,1018.95
2018-06-29T05:01:34.904Z,1018.93
2018-06-29T05:02:34.722Z,1018.89
2018-06-29T05:03:34.787Z,1018.87
2018-06-29T05:04:35.007Z,1018.9
2018-06-29T05:05:34.883Z,1018.92
2018-06-29T05:06:34.887Z,1018.92
2018-06-29T05:07:34.865Z,1018.93
2018-06-29T05:08:34.900Z,1018.96
2018-06-29T05:09:34.860Z,1018.91
2018-06-29T05:10:34.923Z,1018.94
2018-06-29T05:11:34.639Z,1018.92
2018-06-29T05:12:34.853Z,1018.88
2018-06-29T05:13:35.054Z,1018.9
2018-06-29T05:14:34.811Z,1018.94
2018-06-29T05:15:35.131Z,1018.93
2018-06-29T05:16:34.972Z,1018.96
2018-06-29T05:17:34.904Z,1018.92
2018-06-29T05:18:34.791Z,1018.92
2018-06-29T05:19:34.749Z,1018.97
2018-06-29T05:20:34.695Z,1018.95
2018-06-29T05:21:35.079Z,1018.94
2018-06-29T05:22:34.865Z,1018.97
2018-06-29T05:23:34.739Z,1018.98
2018-06-29T05:24:34.995Z,1018.93
2018-06-29T05:25:34.870Z,1019.01
2018-06-29T05:26:34.757Z,1018.95
2018-06-29T05:27:34.966Z,1018.99
2018-06-29T05:28:35.137Z,1018.95
2018-06-29T05:29:44.822Z,1018.97
2018-06-29T05:30:34.887Z,1019
2018-06-29T05:31:35.056Z,1018.99
2018-06-29T05:32:34.859Z,1018.97
2018-06-29T05:33:34.783Z,1018.99
2018-06-29T05:34:34.846Z,1018.99
2018-06-29T05:35:34.914Z,1019.02
2018-06-29T05:36:34.987Z,1019.03
2018-06-29T05:37:34.890Z,1019.05
2018-06-29T05:38:34.880Z,1019.07
2018-06-29T05:39:35.035Z,1019.05
2018-06-29T05:40:34.804Z,1019.08
2018-06-29T05:41:35.103Z,1019.02
2018-06-29T05:42:35.131Z,1019.04
2018-06-29T05:43:35.002Z,1019.08
2018-06-29T05:44:34.959Z,1019.07
2018-06-29T05:45:34.828Z,1019.09
2018-06-29T05:46:35.116Z,1019.11
2018-06-29T05:47:34.861Z,1019.12
2018-06-29T05:48:34.962Z,1019.12
2018-06-29T05:49:34.855Z,1019.11
2018-06-29T05:51:05.283Z,1019.12
2018-06-29T05:51:35.044Z,1019.1
2018-06-29T05:52:35.206Z,1019.11
2018-06-29T05:53:34.857Z,1019.11
2018-06-29T05:54:35.159Z,1019.07
2018-06-29T05:55:35.030Z,1019.07
2018-06-29T05:56:35.175Z,1019.08
2018-06-29T05:57:35.360Z,1019.15
2018-06-29T05:58:34.920Z,1019.13
2018-06-29T05:59:34.925Z,1019.13
2018-06-29T06:00:34.863Z,1019.12
2018-06-29T06:01:34.935Z,1019.06
2018-06-29T06:02:34.789Z,1019.06
2018-06-29T06:03:34.885Z,1019.09
2018-06-29T06:04:35.158Z,1019.08
2018-06-29T06:05:34.817Z,1019.08
2018-06-29T06:06:35.018Z,1019.09
2018-06-29T06:07:34.973Z,1019.08
2018-06-29T06:08:34.828Z,1019.11
2018-06-29T06:09:34.982Z,1019.08
2018-06-29T06:10:34.966Z,1019.05
2018-06-29T06:11:34.756Z,1019.09
2018-06-29T06:12:35.036Z,1019.06
2018-06-29T06:13:34.798Z,1019.12
2018-06-29T06:14:35.034Z,1019.12
2018-06-29T06:15:34.990Z,1019.14
2018-06-29T06:16:34.794Z,1019.14
2018-06-29T06:17:34.724Z,1019.11
2018-06-29T06:18:35.132Z,1019.17
2018-06-29T06:19:35.054Z,1019.1
2018-06-29T06:20:34.757Z,1019.13
2018-06-29T06:21:34.996Z,1019.11
2018-06-29T06:22:34.897Z,1019.15
2018-06-29T06:23:34.802Z,1019.13
2018-06-29T06:24:35.038Z,1019.18
2018-06-29T06:25:34.767Z,1019.19
2018-06-29T06:26:35.053Z,1019.21
2018-06-29T06:27:35.029Z,1019.19
2018-06-29T06:28:34.946Z,1019.19
2018-06-29T06:29:34.753Z,1019.16
2018-06-29T06:30:34.736Z,1019.11
2018-06-29T06:31:34.810Z,1019.11
2018-06-29T06:32:34.785Z,1019.11
2018-06-29T06:33:34.964Z,1019.07
2018-06-29T06:34:34.725Z,1019.11
2018-06-29T06:35:34.884Z,1019.11
2018-06-29T06:36:34.944Z,1019.15
2018-06-29T06:37:34.964Z,1019.19
2018-06-29T06:38:34.783Z,1019.18
2018-06-29T06:39:34.975Z,1019.18
2018-06-29T06:40:35.093Z,1019.2
2018-06-29T06:42:05.237Z,1019.23
2018-06-29T06:42:34.894Z,1019.25
2018-06-29T06:43:34.759Z,1019.32
2018-06-29T06:44:34.740Z,1019.33
2018-06-29T06:45:35.007Z,1019.36
2018-06-29T06:46:34.832Z,1019.32
2018-06-29T06:47:34.902Z,1019.35
2018-06-29T06:48:35.039Z,1019.35
2018-06-29T06:49:35.035Z,1019.37
2018-06-29T06:50:35.008Z,1019.34
2018-06-29T06:51:34.985Z,1019.35
2018-06-29T06:52:36.235Z,1019.35
2018-06-29T06:53:34.854Z,1019.36
2018-06-29T06:54:34.876Z,1019.34
2018-06-29T06:55:34.738Z,1019.32
2018-06-29T06:56:34.941Z,1019.19
2018-06-29T06:57:34.839Z,1019.23
2018-06-29T06:58:34.810Z,1019.14
2018-06-29T06:59:34.756Z,1019.21
2018-06-29T07:00:35.041Z,1019.22
2018-06-29T07:01:34.886Z,1019.22
2018-06-29T07:02:34.869Z,1019.17
2018-06-29T07:03:34.887Z,1019.14
2018-06-29T07:04:34.900Z,1019.13
2018-06-29T07:05:34.937Z,1019.07
2018-06-29T07:06:34.887Z,1019.06
2018-06-29T07:07:34.695Z,1019.02
2018-06-29T07:08:35.006Z,1018.98
2018-06-29T07:09:34.801Z,1019.02
2018-06-29T07:10:34.740Z,1018.96
2018-06-29T07:11:34.790Z,1019.02
2018-06-29T07:12:35.094Z,1019
2018-06-29T07:13:34.830Z,1019.03
2018-06-29T07:14:34.910Z,1019.02
2018-06-29T07:15:34.833Z,1019.03
2018-06-29T07:16:34.904Z,1019.04
2018-06-29T07:17:34.854Z,1019.03
2018-06-29T07:18:34.775Z,1019.1
2018-06-29T07:19:34.750Z,1019.06
2018-06-29T07:20:34.637Z,1019.1
2018-06-29T07:21:34.849Z,1019.11
2018-06-29T07:22:34.955Z,1019.16
2018-06-29T07:23:34.862Z,1019.1
2018-06-29T07:24:35.527Z,1019.14
2018-06-29T07:25:34.952Z,1019.14
2018-06-29T07:26:34.785Z,1019.15
2018-06-29T07:27:35.062Z,1019.16
2018-06-29T07:28:34.970Z,1019.18
2018-06-29T07:29:34.851Z,1019.15
2018-06-29T07:30:34.801Z,1019.13
2018-06-29T07:31:34.742Z,1019.09
2018-06-29T07:32:34.989Z,1019.09
2018-06-29T07:33:34.971Z,1019.07
2018-06-29T07:34:34.798Z,1019.1
2018-06-29T07:35:34.947Z,1019.1
2018-06-29T07:36:34.908Z,1019.15
2018-06-29T07:37:34.694Z,1019.11
2018-06-29T07:38:34.833Z,1019.05
2018-06-29T07:39:34.738Z,1019.05
2018-06-29T07:40:34.838Z,1019.02
2018-06-29T07:41:34.721Z,1019.05
2018-06-29T07:42:34.829Z,1019.03
2018-06-29T07:43:34.745Z,1019.07
2018-06-29T07:44:34.705Z,1019.1
2018-06-29T07:45:34.830Z,1019.08
2018-06-29T07:46:35.231Z,1019.09
2018-06-29T07:47:34.908Z,1019.09
2018-06-29T07:48:35.032Z,1019.08
2018-06-29T07:49:34.726Z,1019.1
2018-06-29T07:50:35.068Z,1019.11
2018-06-29T07:51:35.011Z,1019.08
2018-06-29T07:52:34.950Z,1019.09
2018-06-29T07:53:34.699Z,1019.06
2018-06-29T07:54:34.735Z,1019.05
2018-06-29T07:55:34.830Z,1019.08
2018-06-29T07:56:35.052Z,1019.08
2018-06-29T07:57:35.013Z,1019.03
2018-06-29T07:58:35.125Z,1019.03
2018-06-29T07:59:34.917Z,1019.01
2018-06-29T08:00:34.863Z,1019.02
2018-06-29T08:01:34.921Z,1019.02
2018-06-29T08:02:34.923Z,1019.05
2018-06-29T08:03:34.874Z,1019.02
2018-06-29T08:04:34.759Z,1019.01
2018-06-29T08:05:34.861Z,1018.96
2018-06-29T08:06:35.000Z,1019
2018-06-29T08:07:34.752Z,1019.01
2018-06-29T08:08:34.868Z,1019
2018-06-29T08:09:34.886Z,1019.02
2018-06-29T08:10:35.023Z,1019.04
2018-06-29T08:11:34.903Z,1019.06
2018-06-29T08:12:34.851Z,1019.13
2018-06-29T08:13:34.902Z,1019.06
2018-06-29T08:14:34.793Z,1019.12
2018-06-29T08:15:34.800Z,1019.13
2018-06-29T08:16:34.796Z,1019.18
2018-06-29T08:17:34.828Z,1019.14
2018-06-29T08:18:34.828Z,1019.19
2018-06-29T08:19:34.883Z,1019.17
2018-06-29T08:20:34.831Z,1019.16
2018-06-29T08:21:34.843Z,1019.16
2018-06-29T08:22:34.847Z,1019.16
2018-06-29T08:23:34.857Z,1019.15
2018-06-29T08:24:34.873Z,1019.17
2018-06-29T08:25:34.868Z,1019.09
2018-06-29T08:26:35.002Z,1019.09
2018-06-29T08:27:34.959Z,1019.09
2018-06-29T08:28:34.884Z,1019.04
2018-06-29T08:29:34.973Z,1019.05
2018-06-29T08:30:34.935Z,1019.07
2018-06-29T08:31:34.911Z,1019.08
2018-06-29T08:32:34.925Z,1019.06
2018-06-29T08:33:34.917Z,1019.06
2018-06-29T08:34:34.944Z,1019.1
2018-06-29T08:35:35.038Z,1019.1
2018-06-29T08:36:34.945Z,1019.06
2018-06-29T08:37:35.036Z,1019.06
2018-06-29T08:38:35.033Z,1019.05
2018-06-29T08:39:34.957Z,1019.06
2018-06-29T08:40:34.961Z,1019.08
2018-06-29T08:41:34.961Z,1019.08
2018-06-29T08:42:34.962Z,1019.09
2018-06-29T08:43:34.970Z,1019.08
2018-06-29T08:44:35.032Z,1019.08
2018-06-29T08:45:34.989Z,1019.08
2018-06-29T08:46:35.034Z,1019.09
2018-06-29T08:47:34.997Z,1019.08
2018-06-29T08:48:34.993Z,1019.04
2018-06-29T08:49:35.113Z,1019.02
2018-06-29T08:50:35.008Z,1018.99
2018-06-29T08:51:35.011Z,1019
2018-06-29T08:52:35.023Z,1018.99
2018-06-29T08:53:35.030Z,1018.96
2018-06-29T08:54:35.090Z,1019
2018-06-29T08:55:35.090Z,1018.97
2018-06-29T08:56:34.789Z,1018.99
2018-06-29T08:57:34.963Z,1018.93
2018-06-29T08:58:35.033Z,1018.97
2018-06-29T08:59:35.053Z,1018.96
2018-06-29T09:00:35.047Z,1018.99
2018-06-29T09:01:35.015Z,1018.93
2018-06-29T09:02:35.061Z,1018.97
2018-06-29T09:03:35.083Z,1018.97
2018-06-29T09:04:35.098Z,1018.99
2018-06-29T09:05:35.068Z,1018.96
2018-06-29T09:06:34.725Z,1018.94
2018-06-29T09:07:34.672Z,1018.95
2018-06-29T09:08:34.775Z,1018.97
2018-06-29T09:09:35.069Z,1018.93
2018-06-29T09:10:34.870Z,1018.94
2018-06-29T09:11:34.898Z,1018.91
2018-06-29T09:12:35.120Z,1018.91
2018-06-29T09:13:35.062Z,1018.94
2018-06-29T09:14:35.157Z,1018.89
2018-06-29T09:15:35.138Z,1018.87
2018-06-29T09:16:34.739Z,1018.87
2018-06-29T09:17:35.142Z,1018.88
2018-06-29T09:18:35.294Z,1018.83
2018-06-29T09:19:35.123Z,1018.83
2018-06-29T09:20:35.134Z,1018.85
2018-06-29T09:21:35.179Z,1018.85
2018-06-29T09:22:34.713Z,1018.86
2018-06-29T09:23:54.655Z,1018.89
2018-06-29T09:24:34.845Z,1018.84
2018-06-29T09:25:34.919Z,1018.81
2018-06-29T09:26:34.727Z,1018.83
2018-06-29T09:27:34.875Z,1018.8
2018-06-29T09:28:35.163Z,1018.77
2018-06-29T09:29:34.960Z,1018.79
2018-06-29T09:30:34.979Z,1018.8
2018-06-29T09:31:34.778Z,1018.78
2018-06-29T09:32:34.815Z,1018.75
2018-06-29T09:33:35.195Z,1018.73
2018-06-29T09:34:34.859Z,1018.76
2018-06-29T09:35:34.779Z,1018.77
2018-06-29T09:36:34.972Z,1018.8
2018-06-29T09:37:34.691Z,1018.77
2018-06-29T09:38:35.069Z,1018.71
2018-06-29T09:39:35.229Z,1018.75
2018-06-29T09:40:35.047Z,1018.69
2018-06-29T09:41:34.867Z,1018.71
2018-06-29T09:42:35.468Z,1018.63
2018-06-29T09:43:34.870Z,1018.61
2018-06-29T09:44:34.710Z,1018.59
2018-06-29T09:45:34.932Z,1018.6
2018-06-29T09:46:34.877Z,1018.58
2018-06-29T09:47:35.111Z,1018.57
2018-06-29T09:48:35.118Z,1018.57
2018-06-29T09:49:34.805Z,1018.57
2018-06-29T09:50:34.869Z,1018.51
2018-06-29T09:51:35.403Z,1018.53
2018-06-29T09:52:34.752Z,1018.52
2018-06-29T09:53:34.717Z,1018.55
2018-06-29T09:54:35.003Z,1018.51
2018-06-29T09:55:34.943Z,1018.52
2018-06-29T09:56:34.868Z,1018.52
2018-06-29T09:57:34.818Z,1018.54
2018-06-29T09:58:34.800Z,1018.48
2018-06-29T09:59:35.187Z,1018.48
2018-06-29T10:00:35.038Z,1018.48
2018-06-29T10:01:34.700Z,1018.45
2018-06-29T10:02:44.821Z,1018.42
2018-06-29T10:03:34.896Z,1018.41
2018-06-29T10:04:34.719Z,1018.44
2018-06-29T10:05:34.720Z,1018.44
2018-06-29T10:06:34.917Z,1018.36
2018-06-29T10:07:34.965Z,1018.39
2018-06-29T10:08:34.833Z,1018.37
2018-06-29T10:09:34.878Z,1018.36
2018-06-29T10:10:34.986Z,1018.35
2018-06-29T10:11:34.725Z,1018.37
2018-06-29T10:12:34.753Z,1018.34
2018-06-29T10:13:34.904Z,1018.38
2018-06-29T10:14:34.730Z,1018.35
2018-06-29T10:15:34.837Z,1018.39
2018-06-29T10:16:34.783Z,1018.36
2018-06-29T10:17:34.728Z,1018.35
2018-06-29T10:18:34.885Z,1018.34
2018-06-29T10:19:35.106Z,1018.31
2018-06-29T10:20:34.982Z,1018.34
2018-06-29T10:21:34.913Z,1018.34
2018-06-29T10:22:35.141Z,1018.28
2018-06-29T10:23:34.706Z,1018.29
2018-06-29T10:24:34.911Z,1018.36
2018-06-29T10:25:35.075Z,1018.33
2018-06-29T10:26:34.893Z,1018.31
2018-06-29T10:27:34.733Z,1018.33
2018-06-29T10:28:34.892Z,1018.31
2018-06-29T10:29:34.897Z,1018.29
2018-06-29T10:30:34.942Z,1018.23
2018-06-29T10:31:34.694Z,1018.26
2018-06-29T10:32:34.688Z,1018.27
2018-06-29T10:33:35.021Z,1018.28
2018-06-29T10:34:34.636Z,1018.24
2018-06-29T10:35:34.789Z,1018.25
2018-06-29T10:36:34.946Z,1018.24
2018-06-29T10:37:34.926Z,1018.2
2018-06-29T10:38:34.684Z,1018.21
2018-06-29T10:39:34.821Z,1018.2
2018-06-29T10:40:34.682Z,1018.23
2018-06-29T10:41:35.074Z,1018.2
2018-06-29T10:42:34.688Z,1018.2
2018-06-29T10:43:34.879Z,1018.17
2018-06-29T10:44:35.096Z,1018.18
2018-06-29T10:45:34.805Z,1018.13
2018-06-29T10:46:34.886Z,1018.17
2018-06-29T10:47:34.817Z,1018.1
2018-06-29T10:48:34.805Z,1018.11
2018-06-29T10:49:34.813Z,1018.13
2018-06-29T10:50:34.701Z,1018.11
2018-06-29T10:51:34.720Z,1018.15
2018-06-29T10:52:34.882Z,1018.15
2018-06-29T10:53:34.867Z,1018.14
2018-06-29T10:54:34.688Z,1018.14
2018-06-29T10:55:34.833Z,1018.13
2018-06-29T10:56:34.903Z,1018.1
2018-06-29T10:57:34.893Z,1018.07
2018-06-29T10:58:34.973Z,1018.04
2018-06-29T10:59:34.845Z,1018.04
2018-06-29T11:00:34.855Z,1018.06
2018-06-29T11:01:34.785Z,1018.03
2018-06-29T11:02:34.721Z,1018.04
2018-06-29T11:03:34.871Z,1018.01
2018-06-29T11:04:34.670Z,1017.95
2018-06-29T11:05:35.118Z,1018
2018-06-29T11:06:34.804Z,1017.95
2018-06-29T11:07:34.644Z,1018
2018-06-29T11:08:34.708Z,1017.95
2018-06-29T11:09:34.865Z,1017.96
2018-06-29T11:10:34.814Z,1017.97
2018-06-29T11:11:34.904Z,1017.97
2018-06-29T11:12:34.783Z,1017.94
2018-06-29T11:13:34.976Z,1017.92
2018-06-29T11:14:34.705Z,1018.01
2018-06-29T11:15:34.703Z,1017.94
2018-06-29T11:16:35.121Z,1017.9
2018-06-29T11:17:34.754Z,1017.95
2018-06-29T11:18:34.889Z,1017.92
2018-06-29T11:19:35.018Z,1017.85
2018-06-29T11:20:34.747Z,1017.85
2018-06-29T11:21:34.974Z,1017.86
2018-06-29T11:22:35.200Z,1017.86
2018-06-29T11:23:34.875Z,1017.87
2018-06-29T11:24:34.787Z,1017.84
2018-06-29T11:25:34.797Z,1017.82
2018-06-29T11:26:34.747Z,1017.86
2018-06-29T11:27:34.742Z,1017.85
2018-06-29T11:28:34.925Z,1017.88
2018-06-29T11:29:34.885Z,1017.84
2018-06-29T11:30:35.097Z,1017.84
2018-06-29T11:31:35.015Z,1017.74
2018-06-29T11:32:34.777Z,1017.72
2018-06-29T11:33:34.865Z,1017.73
2018-06-29T11:34:34.848Z,1017.75
2018-06-29T11:35:34.818Z,1017.69
2018-06-29T11:36:34.686Z,1017.68
2018-06-29T11:37:34.676Z,1017.68
2018-06-29T11:38:34.761Z,1017.71
2018-06-29T11:39:34.937Z,1017.72
2018-06-29T11:40:34.748Z,1017.67
2018-06-29T11:41:35.140Z,1017.63
2018-06-29T11:42:35.017Z,1017.63
2018-06-29T11:43:34.838Z,1017.61
2018-06-29T11:44:34.813Z,1017.59
2018-06-29T11:45:34.949Z,1017.61
2018-06-29T11:46:35.005Z,1017.6
2018-06-29T11:47:34.931Z,1017.68
2018-06-29T11:48:34.895Z,1017.72
2018-06-29T11:49:34.780Z,1017.66
2018-06-29T11:50:34.758Z,1017.65
2018-06-29T11:51:34.796Z,1017.67
2018-06-29T11:52:34.807Z,1017.59
2018-06-29T11:53:34.679Z,1017.61
2018-06-29T11:54:34.798Z,1017.58
2018-06-29T11:55:34.823Z,1017.6
2018-06-29T11:56:34.798Z,1017.56
2018-06-29T11:57:34.741Z,1017.57
2018-06-29T11:58:34.804Z,1017.56
2018-06-29T11:59:34.745Z,1017.56
2018-06-29T12:00:35.008Z,1017.61
2018-06-29T12:01:34.868Z,1017.56
2018-06-29T12:02:34.689Z,1017.57
2018-06-29T12:03:34.779Z,1017.54
2018-06-29T12:04:34.852Z,1017.55
2018-06-29T12:05:34.675Z,1017.52
2018-06-29T12:06:34.713Z,1017.5
2018-06-29T12:07:34.772Z,1017.46
2018-06-29T12:08:34.976Z,1017.47